sensor_id;sensor_type;location;lat;lon;timestamp;pressure;altitude;pressure_sealevel;temperature;humidity
67377;BME280;54261;46.086;6.588;2023-11-21T00:04:39;92200.81;;;8.12;43.00
67377;BME280;54261;46.086;6.588;2023-11-21T00:09:41;92190.06;;;7.94;42.94
67377;BME280;54261;46.086;6.588;2023-11-21T00:14:43;92179.25;;;7.45;43.33
67377;BME280;54261;46.086;6.588;2023-11-21T00:19:45;92166.50;;;7.42;43.95
67377;BME280;54261;46.086;6.588;2023-11-21T00:24:46;92176.94;;;7.84;43.86
67377;BME280;54261;46.086;6.588;2023-11-21T00:29:49;92162.78;;;8.15;43.45
67377;BME280;54261;46.086;6.588;2023-11-21T00:34:51;92033.59;;;7.30;43.10
67377;BME280;54261;46.086;6.588;2023-11-21T00:39:53;92144.53;;;8.17;43.10
67377;BME280;54261;46.086;6.588;2023-11-21T00:44:55;92147.31;;;7.94;42.54
67377;BME280;54261;46.086;6.588;2023-11-21T00:49:57;92154.53;;;7.94;43.07
67377;BME280;54261;46.086;6.588;2023-11-21T00:54:59;92142.50;;;8.14;42.75
67377;BME280;54261;46.086;6.588;2023-11-21T01:00:01;92127.19;;;7.97;42.96
67377;BME280;54261;46.086;6.588;2023-11-21T01:05:10;92151.38;;;8.41;42.50
67377;BME280;54261;46.086;6.588;2023-11-21T01:10:12;92158.66;;;8.58;42.33
67377;BME280;54261;46.086;6.588;2023-11-21T01:15:14;92145.56;;;8.57;41.74
67377;BME280;54261;46.086;6.588;2023-11-21T01:20:17;92154.06;;;8.50;42.11
67377;BME280;54261;46.086;6.588;2023-11-21T01:25:21;92160.16;;;8.33;41.90
67377;BME280;54261;46.086;6.588;2023-11-21T01:30:24;92152.31;;;8.45;42.38
67377;BME280;54261;46.086;6.588;2023-11-21T01:35:27;92153.94;;;8.82;42.51
67377;BME280;54261;46.086;6.588;2023-11-21T01:40:29;92144.03;;;8.82;42.15
67377;BME280;54261;46.086;6.588;2023-11-21T01:45:32;92143.25;;;8.99;42.16
67377;BME280;54261;46.086;6.588;2023-11-21T01:50:35;92141.72;;;9.16;41.95
67377;BME280;54261;46.086;6.588;2023-11-21T01:55:37;92137.72;;;9.31;41.54
67377;BME280;54261;46.086;6.588;2023-11-21T02:00:40;92127.31;;;9.47;41.28
67377;BME280;54261;46.086;6.588;2023-11-21T02:05:42;92124.91;;;9.63;41.05
67377;BME280;54261;46.086;6.588;2023-11-21T02:10:44;92114.44;;;9.79;40.91
67377;BME280;54261;46.086;6.588;2023-11-21T02:15:46;92097.25;;;9.80;40.26
67377;BME280;54261;46.086;6.588;2023-11-21T02:20:49;92093.03;;;9.70;40.43
67377;BME280;54261;46.086;6.588;2023-11-21T02:25:51;92093.22;;;9.65;40.61
67377;BME280;54261;46.086;6.588;2023-11-21T02:30:53;92088.50;;;9.62;40.86
67377;BME280;54261;46.086;6.588;2023-11-21T02:36:03;92051.47;;;9.08;41.07
67377;BME280;54261;46.086;6.588;2023-11-21T02:41:05;92082.44;;;9.26;41.46
67377;BME280;54261;46.086;6.588;2023-11-21T02:46:08;92085.47;;;8.98;41.59
67377;BME280;54261;46.086;6.588;2023-11-21T02:51:10;92074.28;;;9.14;41.89
67377;BME280;54261;46.086;6.588;2023-11-21T02:56:12;92073.19;;;9.15;41.95
67377;BME280;54261;46.086;6.588;2023-11-21T03:01:14;92059.78;;;9.24;41.64
67377;BME280;54261;46.086;6.588;2023-11-21T03:06:19;92055.19;;;9.33;41.19
67377;BME280;54261;46.086;6.588;2023-11-21T03:11:21;92050.47;;;9.30;40.97
67377;BME280;54261;46.086;6.588;2023-11-21T03:16:23;92049.97;;;9.37;41.15
67377;BME280;54261;46.086;6.588;2023-11-21T03:21:25;92050.41;;;9.47;40.78
67377;BME280;54261;46.086;6.588;2023-11-21T03:26:27;92038.19;;;9.29;40.91
67377;BME280;54261;46.086;6.588;2023-11-21T03:31:30;92043.84;;;9.27;41.11
67377;BME280;54261;46.086;6.588;2023-11-21T03:36:33;92041.06;;;9.24;41.00
67377;BME280;54261;46.086;6.588;2023-11-21T03:41:35;92038.88;;;9.08;41.17
67377;BME280;54261;46.086;6.588;2023-11-21T03:46:37;92052.59;;;9.06;41.58
67377;BME280;54261;46.086;6.588;2023-11-21T03:51:39;92049.72;;;9.12;41.12
67377;BME280;54261;46.086;6.588;2023-11-21T03:56:40;92037.75;;;8.91;41.29
67377;BME280;54261;46.086;6.588;2023-11-21T04:01:42;92034.00;;;9.01;41.04
67377;BME280;54261;46.086;6.588;2023-11-21T04:06:44;92053.53;;;8.93;41.52
67377;BME280;54261;46.086;6.588;2023-11-21T04:11:46;92032.00;;;8.54;41.49
67377;BME280;54261;46.086;6.588;2023-11-21T04:16:48;92041.75;;;8.41;42.32
67377;BME280;54261;46.086;6.588;2023-11-21T04:21:50;92060.78;;;8.57;42.22
67377;BME280;54261;46.086;6.588;2023-11-21T04:26:52;92058.88;;;8.58;42.11
67377;BME280;54261;46.086;6.588;2023-11-21T04:31:55;92059.81;;;8.79;42.08
67377;BME280;54261;46.086;6.588;2023-11-21T04:36:57;92050.25;;;8.70;41.66
67377;BME280;54261;46.086;6.588;2023-11-21T04:41:59;92056.22;;;8.84;41.72
67377;BME280;54261;46.086;6.588;2023-11-21T04:47:00;92048.97;;;9.02;41.65
67377;BME280;54261;46.086;6.588;2023-11-21T04:52:03;92054.13;;;9.16;40.84
67377;BME280;54261;46.086;6.588;2023-11-21T04:57:06;92054.78;;;8.96;41.29
67377;BME280;54261;46.086;6.588;2023-11-21T05:02:11;92051.94;;;9.10;40.86
67377;BME280;54261;46.086;6.588;2023-11-21T05:07:34;92041.06;;;9.15;40.99
67377;BME280;54261;46.086;6.588;2023-11-21T05:12:37;92051.16;;;9.00;41.11
67377;BME280;54261;46.086;6.588;2023-11-21T05:17:40;92047.22;;;8.98;41.13
67377;BME280;54261;46.086;6.588;2023-11-21T05:22:49;92059.03;;;9.14;41.41
67377;BME280;54261;46.086;6.588;2023-11-21T05:27:51;91959.00;;;8.54;41.19
67377;BME280;54261;46.086;6.588;2023-11-21T05:32:54;92056.63;;;9.30;40.96
67377;BME280;54261;46.086;6.588;2023-11-21T05:37:56;92052.88;;;9.05;41.26
67377;BME280;54261;46.086;6.588;2023-11-21T05:42:58;92052.41;;;8.94;41.54
67377;BME280;54261;46.086;6.588;2023-11-21T05:48:00;92051.78;;;8.97;41.92
67377;BME280;54261;46.086;6.588;2023-11-21T05:53:02;92051.00;;;9.05;41.84
67377;BME280;54261;46.086;6.588;2023-11-21T05:58:04;92046.09;;;9.16;41.42
67377;BME280;54261;46.086;6.588;2023-11-21T06:03:06;92051.16;;;9.09;41.50
67377;BME280;54261;46.086;6.588;2023-11-21T06:08:09;92021.59;;;8.88;41.51
67377;BME280;54261;46.086;6.588;2023-11-21T06:13:12;92049.28;;;9.01;41.54
67377;BME280;54261;46.086;6.588;2023-11-21T06:18:14;92054.78;;;8.96;41.65
67377;BME280;54261;46.086;6.588;2023-11-21T06:23:16;92052.44;;;8.85;41.94
67377;BME280;54261;46.086;6.588;2023-11-21T06:28:18;92051.97;;;8.83;41.68
67377;BME280;54261;46.086;6.588;2023-11-21T06:33:20;92054.94;;;8.82;41.93
67377;BME280;54261;46.086;6.588;2023-11-21T06:38:23;92052.59;;;8.71;42.06
67377;BME280;54261;46.086;6.588;2023-11-21T06:43:25;92035.44;;;8.63;41.67
67377;BME280;54261;46.086;6.588;2023-11-21T06:48:28;92064.56;;;8.65;41.89
67377;BME280;54261;46.086;6.588;2023-11-21T06:53:31;92067.88;;;8.71;41.74
67377;BME280;54261;46.086;6.588;2023-11-21T06:58:36;92072.75;;;8.77;41.80
67377;BME280;54261;46.086;6.588;2023-11-21T07:03:38;92073.19;;;8.88;41.63
67377;BME280;54261;46.086;6.588;2023-11-21T07:08:40;92043.28;;;8.86;41.64
67377;BME280;54261;46.086;6.588;2023-11-21T07:13:43;92077.13;;;9.09;41.00
67377;BME280;54261;46.086;6.588;2023-11-21T07:18:44;92072.41;;;9.14;41.07
67377;BME280;54261;46.086;6.588;2023-11-21T07:23:46;92082.00;;;9.24;41.26
67377;BME280;54261;46.086;6.588;2023-11-21T07:28:48;92088.13;;;9.33;41.21
67377;BME280;54261;46.086;6.588;2023-11-21T07:33:51;92093.13;;;9.44;41.17
67377;BME280;54261;46.086;6.588;2023-11-21T07:38:53;92098.78;;;9.51;40.61
67377;BME280;54261;46.086;6.588;2023-11-21T07:43:55;92084.16;;;9.40;40.59
67377;BME280;54261;46.086;6.588;2023-11-21T07:48:57;92103.59;;;9.67;40.96
67377;BME280;54261;46.086;6.588;2023-11-21T07:53:59;92098.81;;;9.81;40.87
67377;BME280;54261;46.086;6.588;2023-11-21T07:59:02;92107.66;;;9.82;40.81
67377;BME280;54261;46.086;6.588;2023-11-21T08:04:04;92098.19;;;9.84;40.52
67377;BME280;54261;46.086;6.588;2023-11-21T08:09:06;92097.50;;;9.96;40.40
67377;BME280;54261;46.086;6.588;2023-11-21T08:14:10;91995.53;;;9.15;40.39
67377;BME280;54261;46.086;6.588;2023-11-21T08:19:11;92101.19;;;9.83;40.92
67377;BME280;54261;46.086;6.588;2023-11-21T08:24:13;92104.88;;;9.69;40.73
67377;BME280;54261;46.086;6.588;2023-11-21T08:29:15;92103.78;;;9.61;40.86
67377;BME280;54261;46.086;6.588;2023-11-21T08:34:18;92103.72;;;9.79;41.21
67377;BME280;54261;46.086;6.588;2023-11-21T08:39:20;92100.09;;;9.84;41.00
67377;BME280;54261;46.086;6.588;2023-11-21T08:44:22;92099.00;;;9.76;41.17
67377;BME280;54261;46.086;6.588;2023-11-21T08:49:24;92095.25;;;9.68;41.31
67377;BME280;54261;46.086;6.588;2023-11-21T08:54:29;92084.88;;;9.58;41.16
67377;BME280;54261;46.086;6.588;2023-11-21T08:59:31;92089.72;;;9.73;41.77
67377;BME280;54261;46.086;6.588;2023-11-21T09:04:32;92088.03;;;9.60;40.91
67377;BME280;54261;46.086;6.588;2023-11-21T09:09:34;92084.25;;;9.61;40.97
67377;BME280;54261;46.086;6.588;2023-11-21T09:14:36;92077.78;;;9.05;41.68
67377;BME280;54261;46.086;6.588;2023-11-21T09:19:38;92080.75;;;8.60;43.00
67377;BME280;54261;46.086;6.588;2023-11-21T09:24:40;92090.31;;;7.76;44.69
67377;BME280;54261;46.086;6.588;2023-11-21T09:29:42;92091.56;;;5.96;49.08
67377;BME280;54261;46.086;6.588;2023-11-21T09:34:44;92059.94;;;6.18;49.11
67377;BME280;54261;46.086;6.588;2023-11-21T09:39:46;92101.25;;;7.98;47.38
67377;BME280;54261;46.086;6.588;2023-11-21T09:50:17;92089.09;;;9.20;44.72
67377;BME280;54261;46.086;6.588;2023-11-21T09:55:26;92093.47;;;8.45;44.16
67377;BME280;54261;46.086;6.588;2023-11-21T10:00:30;92091.84;;;7.05;47.87
67377;BME280;54261;46.086;6.588;2023-11-21T10:05:38;92091.84;;;6.23;48.48
67377;BME280;54261;46.086;6.588;2023-11-21T10:10:43;92073.16;;;6.60;48.73
67377;BME280;54261;46.086;6.588;2023-11-21T10:15:52;92086.94;;;5.74;50.06
67377;BME280;54261;46.086;6.588;2023-11-21T10:20:55;92080.03;;;5.59;51.05
67377;BME280;54261;46.086;6.588;2023-11-21T10:25:58;92088.47;;;3.90;56.89
67377;BME280;54261;46.086;6.588;2023-11-21T10:31:11;92075.63;;;6.56;51.44
67377;BME280;54261;46.086;6.588;2023-11-21T10:36:25;91972.47;;;6.88;47.22
67377;BME280;54261;46.086;6.588;2023-11-21T10:41:26;92072.88;;;6.84;47.38
67377;BME280;54261;46.086;6.588;2023-11-21T10:46:28;92070.53;;;6.09;52.06
67377;BME280;54261;46.086;6.588;2023-11-21T10:51:32;92081.97;;;7.37;50.33
67377;BME280;54261;46.086;6.588;2023-11-21T10:56:34;92083.09;;;7.05;48.87
67377;BME280;54261;46.086;6.588;2023-11-21T11:01:44;92065.59;;;6.53;51.44
67377;BME280;54261;46.086;6.588;2023-11-21T11:07:02;92066.19;;;7.90;49.55
67377;BME280;54261;46.086;6.588;2023-11-21T11:12:08;92059.63;;;5.82;51.95
67377;BME280;54261;46.086;6.588;2023-11-21T11:17:12;92045.31;;;5.92;52.98
67377;BME280;54261;46.086;6.588;2023-11-21T11:22:35;92042.25;;;4.82;54.48
67377;BME280;54261;46.086;6.588;2023-11-21T11:27:54;91997.78;;;2.26;60.85
67377;BME280;54261;46.086;6.588;2023-11-21T11:33:19;92043.22;;;4.20;58.87
67377;BME280;54261;46.086;6.588;2023-11-21T11:38:32;92038.94;;;4.90;53.93
67377;BME280;54261;46.086;6.588;2023-11-21T11:43:37;92039.84;;;7.26;50.96
67377;BME280;54261;46.086;6.588;2023-11-21T11:48:46;92040.63;;;8.42;47.88
67377;BME280;54261;46.086;6.588;2023-11-21T11:53:48;92033.41;;;7.67;48.54
67377;BME280;54261;46.086;6.588;2023-11-21T11:58:51;92032.78;;;8.81;46.23
67377;BME280;54261;46.086;6.588;2023-11-21T12:09:20;92034.97;;;6.96;50.34
67377;BME280;54261;46.086;6.588;2023-11-21T12:14:23;92024.44;;;7.54;47.02
67377;BME280;54261;46.086;6.588;2023-11-21T12:19:25;92031.88;;;7.84;48.56
67377;BME280;54261;46.086;6.588;2023-11-21T12:24:28;92026.94;;;8.88;46.56
67377;BME280;54261;46.086;6.588;2023-11-21T12:29:31;92030.88;;;9.47;45.17
67377;BME280;54261;46.086;6.588;2023-11-21T12:34:34;92032.63;;;6.94;47.87
67377;BME280;54261;46.086;6.588;2023-11-21T12:39:36;92021.34;;;7.87;47.89
67377;BME280;54261;46.086;6.588;2023-11-21T12:44:39;92034.34;;;8.82;45.91
67377;BME280;54261;46.086;6.588;2023-11-21T12:49:43;92031.53;;;4.54;55.54
67377;BME280;54261;46.086;6.588;2023-11-21T12:54:46;92048.84;;;6.75;48.74
67377;BME280;54261;46.086;6.588;2023-11-21T12:59:50;92055.28;;;7.37;46.87
67377;BME280;54261;46.086;6.588;2023-11-21T13:04:57;92045.50;;;6.33;51.24
67377;BME280;54261;46.086;6.588;2023-11-21T13:10:00;92039.34;;;8.13;47.23
67377;BME280;54261;46.086;6.588;2023-11-21T13:15:06;92028.16;;;5.43;51.05
67377;BME280;54261;46.086;6.588;2023-11-21T13:20:08;92041.81;;;6.06;48.21
67377;BME280;54261;46.086;6.588;2023-11-21T13:25:17;92046.34;;;7.83;46.50
67377;BME280;54261;46.086;6.588;2023-11-21T13:30:22;92025.50;;;7.93;45.64
67377;BME280;54261;46.086;6.588;2023-11-21T13:35:28;92010.81;;;7.73;46.29
67377;BME280;54261;46.086;6.588;2023-11-21T13:40:51;92047.69;;;7.22;48.14
67377;BME280;54261;46.086;6.588;2023-11-21T13:45:55;92052.59;;;8.36;46.20
67377;BME280;54261;46.086;6.588;2023-11-21T13:51:03;92059.81;;;7.28;47.52
67377;BME280;54261;46.086;6.588;2023-11-21T13:56:15;92049.66;;;5.60;54.13
67377;BME280;54261;46.086;6.588;2023-11-21T14:01:23;92025.16;;;6.60;50.94
67377;BME280;54261;46.086;6.588;2023-11-21T14:06:50;92058.38;;;6.17;52.02
67377;BME280;54261;46.086;6.588;2023-11-21T14:11:55;92060.16;;;6.07;52.80
67377;BME280;54261;46.086;6.588;2023-11-21T14:16:58;92062.72;;;5.01;56.90
67377;BME280;54261;46.086;6.588;2023-11-21T14:22:01;92065.69;;;6.85;51.45
67377;BME280;54261;46.086;6.588;2023-11-21T14:27:03;92056.13;;;5.26;55.59
67377;BME280;54261;46.086;6.588;2023-11-21T14:32:07;92062.88;;;5.93;52.38
67377;BME280;54261;46.086;6.588;2023-11-21T14:37:10;92065.72;;;5.83;53.32
67377;BME280;54261;46.086;6.588;2023-11-21T14:42:15;92062.97;;;5.60;52.28
67377;BME280;54261;46.086;6.588;2023-11-21T14:47:17;92042.91;;;6.05;51.80
67377;BME280;54261;46.086;6.588;2023-11-21T14:52:26;92057.53;;;6.44;50.61
67377;BME280;54261;46.086;6.588;2023-11-21T14:57:36;92058.56;;;7.34;49.65
67377;BME280;54261;46.086;6.588;2023-11-21T15:02:38;92058.16;;;7.90;46.75
67377;BME280;54261;46.086;6.588;2023-11-21T15:07:52;92072.88;;;8.46;46.16
67377;BME280;54261;46.086;6.588;2023-11-21T15:12:57;92073.53;;;8.34;45.54
67377;BME280;54261;46.086;6.588;2023-11-21T15:17:59;92084.50;;;8.15;46.27
67377;BME280;54261;46.086;6.588;2023-11-21T15:23:01;92081.53;;;8.78;44.30
67377;BME280;54261;46.086;6.588;2023-11-21T15:28:05;92084.03;;;8.21;44.65
67377;BME280;54261;46.086;6.588;2023-11-21T15:33:07;92094.00;;;9.09;43.33
67377;BME280;54261;46.086;6.588;2023-11-21T15:38:10;92089.41;;;8.57;43.76
67377;BME280;54261;46.086;6.588;2023-11-21T15:43:12;92104.84;;;8.86;43.03
67377;BME280;54261;46.086;6.588;2023-11-21T15:48:14;92106.25;;;8.57;43.33
67377;BME280;54261;46.086;6.588;2023-11-21T15:53:18;92121.84;;;9.17;43.09
67377;BME280;54261;46.086;6.588;2023-11-21T15:58:20;92120.59;;;8.88;42.39
67377;BME280;54261;46.086;6.588;2023-11-21T16:03:22;92120.91;;;9.13;41.72
67377;BME280;54261;46.086;6.588;2023-11-21T16:08:24;92126.72;;;9.32;41.15
67377;BME280;54261;46.086;6.588;2023-11-21T16:13:25;92138.13;;;9.68;41.17
67377;BME280;54261;46.086;6.588;2023-11-21T16:18:27;92125.09;;;9.49;40.02
67377;BME280;54261;46.086;6.588;2023-11-21T16:23:29;92140.25;;;9.36;39.76
67377;BME280;54261;46.086;6.588;2023-11-21T16:28:33;92084.31;;;8.11;40.10
67377;BME280;54261;46.086;6.588;2023-11-21T16:33:34;92142.19;;;8.07;40.82
67377;BME280;54261;46.086;6.588;2023-11-21T16:38:37;92148.03;;;7.86;41.70
67377;BME280;54261;46.086;6.588;2023-11-21T16:43:39;92155.78;;;8.37;41.21
67377;BME280;54261;46.086;6.588;2023-11-21T16:48:41;92153.19;;;7.83;40.99
67377;BME280;54261;46.086;6.588;2023-11-21T16:53:43;92115.81;;;5.95;44.65
67377;BME280;54261;46.086;6.588;2023-11-21T16:58:45;92156.47;;;7.48;42.38
67377;BME280;54261;46.086;6.588;2023-11-21T17:03:48;92162.06;;;7.60;41.32
67377;BME280;54261;46.086;6.588;2023-11-21T17:08:51;92148.59;;;7.65;41.52
67377;BME280;54261;46.086;6.588;2023-11-21T17:13:53;92167.00;;;6.99;41.77
67377;BME280;54261;46.086;6.588;2023-11-21T17:18:55;92168.41;;;7.19;42.19
67377;BME280;54261;46.086;6.588;2023-11-21T17:23:57;92177.44;;;6.58;41.69
67377;BME280;54261;46.086;6.588;2023-11-21T17:28:59;92187.31;;;6.86;42.57
67377;BME280;54261;46.086;6.588;2023-11-21T17:34:02;92183.06;;;6.85;42.20
67377;BME280;54261;46.086;6.588;2023-11-21T17:39:04;92198.72;;;7.46;41.49
67377;BME280;54261;46.086;6.588;2023-11-21T17:44:11;92205.59;;;7.61;41.09
67377;BME280;54261;46.086;6.588;2023-11-21T17:49:14;92209.66;;;7.58;40.79
67377;BME280;54261;46.086;6.588;2023-11-21T17:54:16;92215.03;;;7.67;40.94
67377;BME280;54261;46.086;6.588;2023-11-21T17:59:18;92211.66;;;7.07;41.56
67377;BME280;54261;46.086;6.588;2023-11-21T18:04:19;92207.25;;;5.62;45.17
67377;BME280;54261;46.086;6.588;2023-11-21T18:09:24;92218.25;;;7.09;42.45
67377;BME280;54261;46.086;6.588;2023-11-21T18:14:26;92222.63;;;7.74;41.50
67377;BME280;54261;46.086;6.588;2023-11-21T18:19:30;92225.78;;;7.30;41.34
67377;BME280;54261;46.086;6.588;2023-11-21T18:24:33;92228.91;;;7.78;40.94
67377;BME280;54261;46.086;6.588;2023-11-21T18:29:35;92234.00;;;7.88;40.52
67377;BME280;54261;46.086;6.588;2023-11-21T18:34:40;92195.22;;;6.63;41.68
67377;BME280;54261;46.086;6.588;2023-11-21T18:39:44;92237.91;;;7.36;41.28
67377;BME280;54261;46.086;6.588;2023-11-21T18:44:46;92233.50;;;7.32;41.12
67377;BME280;54261;46.086;6.588;2023-11-21T18:49:59;92238.03;;;7.31;41.00
67377;BME280;54261;46.086;6.588;2023-11-21T18:55:01;92243.94;;;7.65;40.55
67377;BME280;54261;46.086;6.588;2023-11-21T19:00:05;92251.00;;;7.61;40.61
67377;BME280;54261;46.086;6.588;2023-11-21T19:05:10;92260.69;;;7.79;39.97
67377;BME280;54261;46.086;6.588;2023-11-21T19:10:13;92224.09;;;7.34;40.79
67377;BME280;54261;46.086;6.588;2023-11-21T19:15:15;92258.91;;;7.29;40.99
67377;BME280;54261;46.086;6.588;2023-11-21T19:20:18;92265.19;;;7.10;41.45
67377;BME280;54261;46.086;6.588;2023-11-21T19:25:20;92259.41;;;6.80;42.20
67377;BME280;54261;46.086;6.588;2023-11-21T19:30:22;92269.22;;;7.22;41.37
67377;BME280;54261;46.086;6.588;2023-11-21T19:35:24;92268.09;;;7.37;40.59
67377;BME280;54261;46.086;6.588;2023-11-21T19:40:26;92270.38;;;7.30;41.08
67377;BME280;54261;46.086;6.588;2023-11-21T19:45:29;92279.66;;;6.81;41.66
67377;BME280;54261;46.086;6.588;2023-11-21T19:50:32;92294.06;;;7.08;40.38
67377;BME280;54261;46.086;6.588;2023-11-21T19:55:34;92286.44;;;6.18;42.31
67377;BME280;54261;46.086;6.588;2023-11-21T20:00:36;92297.16;;;6.32;42.87
67377;BME280;54261;46.086;6.588;2023-11-21T20:05:38;92293.78;;;6.96;41.62
67377;BME280;54261;46.086;6.588;2023-11-21T20:10:41;92312.56;;;6.63;42.11
67377;BME280;54261;46.086;6.588;2023-11-21T20:15:43;92314.50;;;7.13;40.78
67377;BME280;54261;46.086;6.588;2023-11-21T20:20:45;92331.41;;;7.22;41.14
67377;BME280;54261;46.086;6.588;2023-11-21T20:25:47;92308.06;;;7.14;40.77
67377;BME280;54261;46.086;6.588;2023-11-21T20:30:50;92316.50;;;7.07;40.67
67377;BME280;54261;46.086;6.588;2023-11-21T20:35:54;92324.69;;;7.25;40.07
67377;BME280;54261;46.086;6.588;2023-11-21T20:40:56;92337.06;;;7.07;40.67
67377;BME280;54261;46.086;6.588;2023-11-21T20:45:58;92335.66;;;6.06;42.18
67377;BME280;54261;46.086;6.588;2023-11-21T20:51:00;92328.50;;;6.82;41.29
67377;BME280;54261;46.086;6.588;2023-11-21T20:56:02;92334.47;;;6.60;41.30
67377;BME280;54261;46.086;6.588;2023-11-21T21:01:04;92335.16;;;6.51;41.66
67377;BME280;54261;46.086;6.588;2023-11-21T21:06:06;92343.59;;;6.73;41.26
67377;BME280;54261;46.086;6.588;2023-11-21T21:11:08;92346.88;;;5.89;42.70
67377;BME280;54261;46.086;6.588;2023-11-21T21:16:11;92344.78;;;6.80;41.51
67377;BME280;54261;46.086;6.588;2023-11-21T21:21:13;92333.31;;;7.08;40.89
67377;BME280;54261;46.086;6.588;2023-11-21T21:26:15;92361.31;;;5.69;43.23
67377;BME280;54261;46.086;6.588;2023-11-21T21:31:18;92365.78;;;6.54;41.40
67377;BME280;54261;46.086;6.588;2023-11-21T21:36:20;92350.91;;;6.20;42.08
67377;BME280;54261;46.086;6.588;2023-11-21T21:41:26;92349.97;;;6.44;42.16
67377;BME280;54261;46.086;6.588;2023-11-21T21:46:28;92350.59;;;6.68;41.26
67377;BME280;54261;46.086;6.588;2023-11-21T21:51:30;92359.59;;;7.01;41.32
67377;BME280;54261;46.086;6.588;2023-11-21T21:56:32;92365.34;;;7.08;40.56
67377;BME280;54261;46.086;6.588;2023-11-21T22:01:34;92341.31;;;6.94;40.85
67377;BME280;54261;46.086;6.588;2023-11-21T22:06:39;92341.88;;;6.02;43.05
67377;BME280;54261;46.086;6.588;2023-11-21T22:11:43;92325.19;;;6.43;41.88
67377;BME280;54261;46.086;6.588;2023-11-21T22:16:45;92347.06;;;6.73;41.72
67377;BME280;54261;46.086;6.588;2023-11-21T22:21:47;92352.78;;;6.94;41.31
67377;BME280;54261;46.086;6.588;2023-11-21T22:26:49;92363.75;;;6.79;41.00
67377;BME280;54261;46.086;6.588;2023-11-21T22:31:53;92359.41;;;6.83;40.69
67377;BME280;54261;46.086;6.588;2023-11-21T22:36:54;92369.84;;;6.65;40.55
67377;BME280;54261;46.086;6.588;2023-11-21T22:41:57;92373.69;;;6.45;41.01
67377;BME280;54261;46.086;6.588;2023-11-21T22:46:59;92374.44;;;6.46;41.04
67377;BME280;54261;46.086;6.588;2023-11-21T22:52:03;92353.03;;;6.51;40.97
67377;BME280;54261;46.086;6.588;2023-11-21T22:57:05;92362.69;;;6.47;41.46
67377;BME280;54261;46.086;6.588;2023-11-21T23:02:07;92366.44;;;6.46;41.04
67377;BME280;54261;46.086;6.588;2023-11-21T23:07:09;92375.56;;;6.59;41.03
67377;BME280;54261;46.086;6.588;2023-11-21T23:12:11;92374.59;;;6.82;40.65
67377;BME280;54261;46.086;6.588;2023-11-21T23:17:12;92355.06;;;6.73;40.95
67377;BME280;54261;46.086;6.588;2023-11-21T23:22:14;92375.25;;;6.13;41.97
67377;BME280;54261;46.086;6.588;2023-11-21T23:27:16;92373.78;;;6.54;41.52
67377;BME280;54261;46.086;6.588;2023-11-21T23:32:18;92367.31;;;6.74;41.50
67377;BME280;54261;46.086;6.588;2023-11-21T23:37:21;92384.72;;;6.86;41.23
67377;BME280;54261;46.086;6.588;2023-11-21T23:42:23;92368.88;;;6.89;41.27
67377;BME280;54261;46.086;6.588;2023-11-21T23:47:25;92359.00;;;6.90;41.12
67377;BME280;54261;46.086;6.588;2023-11-21T23:52:27;92371.28;;;7.05;41.11
67377;BME280;54261;46.086;6.588;2023-11-21T23:57:29;92377.56;;;6.95;40.85
